Date,TemperatureHighF,TemperatureAvgF,TemperatureLowF,DewpointHighF,DewpointAvgF,DewpointLowF,HumidityHigh,HumidityAvg,HumidityLow,PressureMaxIn,PressureMinIn,WindSpeedMaxMPH,WindSpeedAvgMPH,GustSpeedMaxMPH,PrecipitationSumIn
2013-2-1,19,13,7,11,5,1,83,71,59,30.39,30.03,14,2,14,0.00
2013-2-2,31,24,13,27,20,9,100,86,75,30.30,29.98,8,1,11,0.04
2013-2-3,28,23,18,24,18,14,90,84,76,30.11,29.93,7,1,13,0.00
2013-2-4,35,26,16,34,23,14,100,88,70,30.10,29.82,12,1,12,0.01
2013-2-5,38,34,28,35,31,26,97,89,81,30.01,29.84,5,0,8,0.05
2013-2-6,38,34,30,33,29,27,87,82,74,30.24,30.01,8,0,11,0.00
2013-2-7,62,45,32,40,34,28,92,68,40,30.19,29.81,10,2,12,0.00
2013-2-8,52,38,31,46,33,24,94,82,60,30.31,29.81,13,2,20,0.08
2013-2-9,42,33,23,25,21,18,82,62,39,30.40,30.23,10,1,13,0.00
2013-2-11,50,45,38,40,31,28,69,58,48,30.06,29.83,18,5,24,0.00
2013-2-12,49,39,30,29,27,24,85,64,37,30.14,29.90,10,1,10,0.00
2013-2-13,36,33,30,32,28,26,94,83,71,29.90,29.77,6,0,7,0.09
2013-2-14,54,41,31,40,34,29,95,78,52,30.00,29.83,12,2,14,0.01
2013-2-15,41,34,26,32,28,21,91,78,58,30.15,29.99,11,1,14,0.00
2013-2-16,30,24,19,22,17,11,94,76,50,30.14,30.03,9,1,13,0.00
2013-2-17,33,24,15,16,11,6,88,60,33,30.23,30.10,8,0,10,0.00
2013-2-18,59,42,25,41,26,9,83,53,43,30.19,29.76,19,5,24,0.05
2013-2-19,46,38,25,42,33,15,95,83,61,30.11,29.68,17,6,22,0.14
2013-2-20,31,24,20,16,14,12,79,66,52,30.28,30.11,11,1,14,0.00
2013-2-21,34,26,18,27,19,14,89,77,62,30.32,30.02,18,2,22,0.00
2013-2-22,44,36,30,40,34,27,98,91,82,30.05,29.87,12,2,15,0.05
2013-2-23,45,36,32,33,29,26,96,76,50,29.99,29.90,6,0,8,0.00
2013-2-24,44,33,26,28,25,22,89,73,51,30.14,29.93,6,0,9,0.00
2013-2-25,47,36,26,29,25,21,83,64,46,30.16,29.88,15,3,18,0.00
2013-2-26,50,42,36,49,38,24,97,85,56,29.89,29.37,21,4,21,0.99
2013-2-27,41,37,33,39,34,30,95,90,80,29.74,29.54,15,4,17,0.04
2013-2-28,36,34,32,34,31,29,94,90,86,29.93,29.71,13,2,14,0.01